createdAt,value
2023-04-29T00:02:01.215Z,13.83
2023-04-29T00:05:06.992Z,10.93
2023-04-29T00:08:10.726Z,11.73
2023-04-29T00:11:13.797Z,11.83
2023-04-29T00:14:19.799Z,12.43
2023-04-29T00:17:22.919Z,12.50
2023-04-29T00:20:27.260Z,12.43
2023-04-29T00:23:30.276Z,10.60
2023-04-29T00:26:33.611Z,13.40
2023-04-29T00:29:37.315Z,12.97
2023-04-29T00:32:40.983Z,12.43
2023-04-29T00:35:45.442Z,11.37
2023-04-29T00:38:48.525Z,12.63
2023-04-29T00:41:51.909Z,14.27
2023-04-29T00:44:56.143Z,12.37
2023-04-29T00:47:59.628Z,13.93
2023-04-29T00:51:04.910Z,12.23
2023-04-29T00:54:15.216Z,14.00
2023-04-29T00:57:22.699Z,9.93
2023-04-29T01:00:26.574Z,13.00
2023-04-29T01:03:30.696Z,17.87
2023-04-29T01:06:49.793Z,12.43
2023-04-29T01:10:04.262Z,11.17
2023-04-29T01:13:14.637Z,9.87
2023-04-29T01:16:26.827Z,10.30
2023-04-29T01:19:46.860Z,11.40
2023-04-29T01:22:51.371Z,11.07
2023-04-29T01:25:58.717Z,19.30
2023-04-29T01:29:29.702Z,14.60
2023-04-29T01:32:48.862Z,13.57
2023-04-29T01:36:05.285Z,13.80
2023-04-29T01:39:17.945Z,13.13
2023-04-29T01:42:36.741Z,16.30
2023-04-29T01:45:45.373Z,12.33
2023-04-29T01:48:49.577Z,12.10
2023-04-29T01:51:52.848Z,12.80
2023-04-29T01:54:56.518Z,13.43
2023-04-29T01:58:02.544Z,18.27
2023-04-29T02:01:31.495Z,24.67
2023-04-29T02:04:34.965Z,14.50
2023-04-29T02:07:41.807Z,17.03
2023-04-29T02:10:54.370Z,16.30
2023-04-29T02:14:08.278Z,17.00
2023-04-29T02:17:12.482Z,20.73
2023-04-29T02:20:22.202Z,17.20
2023-04-29T02:23:37.122Z,18.13
2023-04-29T02:26:43.275Z,16.03
2023-04-29T02:29:47.814Z,19.17
2023-04-29T02:32:55.844Z,17.93
2023-04-29T02:36:00.809Z,18.63
2023-04-29T02:39:04.476Z,19.50
2023-04-29T02:42:12.746Z,19.97
2023-04-29T02:45:20.505Z,18.80
2023-04-29T02:48:25.178Z,17.87
2023-04-29T02:51:49.895Z,17.57
2023-04-29T02:58:42.378Z,17.83
2023-04-29T03:01:59.103Z,20.43
2023-04-29T03:05:02.979Z,18.90
2023-04-29T03:08:07.645Z,18.40
2023-04-29T03:11:41.354Z,17.60
2023-04-29T03:20:37.097Z,19.27
2023-04-29T03:23:44.831Z,20.53
2023-04-29T03:26:53.886Z,21.50
2023-04-29T03:30:08.485Z,22.03
2023-04-29T03:33:22.477Z,23.53
2023-04-29T03:36:26.286Z,20.93
2023-04-29T03:39:44.687Z,21.40
2023-04-29T03:42:49.914Z,20.40
2023-04-29T03:45:53.829Z,22.40
2023-04-29T03:48:59.741Z,23.10
2023-04-29T03:52:04.798Z,21.57
2023-04-29T03:55:11.537Z,23.03
2023-04-29T03:58:14.864Z,24.80
2023-04-29T04:01:25.283Z,23.23
2023-04-29T04:04:28.935Z,26.43
2023-04-29T04:07:32.857Z,25.50
2023-04-29T04:11:03.190Z,27.10
2023-04-29T04:14:12.910Z,24.40
2023-04-29T04:17:16.209Z,24.87
2023-04-29T04:20:23.035Z,25.83
2023-04-29T04:23:26.694Z,24.37
2023-04-29T04:26:32.485Z,27.20
2023-04-29T04:29:44.447Z,26.80
2023-04-29T04:32:52.595Z,25.53
2023-04-29T04:35:58.011Z,25.10
2023-04-29T04:55:54.510Z,30.07
2023-04-29T04:58:57.913Z,27.70
2023-04-29T05:02:01.479Z,28.50
2023-04-29T05:05:05.148Z,32.50
2023-04-29T05:08:11.832Z,28.67
2023-04-29T05:11:25.464Z,36.07
2023-04-29T05:14:48.724Z,33.83
2023-04-29T05:18:27.463Z,35.30
2023-04-29T05:22:03.361Z,40.23
2023-04-29T05:26:13.466Z,34.70
2023-04-29T05:29:35.094Z,40.30
2023-04-29T05:32:39.334Z,37.80
2023-04-29T05:35:51.025Z,35.80
2023-04-29T05:39:05.279Z,37.10
2023-04-29T05:42:09.043Z,39.73
2023-04-29T05:45:18.995Z,38.07
2023-04-29T05:48:24.034Z,39.77
2023-04-29T05:51:31.703Z,39.50
2023-04-29T05:54:35.390Z,35.50
2023-04-29T05:57:38.564Z,38.40
2023-04-29T06:00:44.215Z,39.73
2023-04-29T06:03:54.238Z,40.73
2023-04-29T06:07:06.233Z,42.40
2023-04-29T06:10:24.805Z,39.37
2023-04-29T06:13:27.870Z,38.37
2023-04-29T06:16:32.385Z,39.00
2023-04-29T06:19:36.107Z,39.17
2023-04-29T06:22:39.384Z,41.77
2023-04-29T06:25:42.867Z,46.83
2023-04-29T06:28:46.542Z,42.10
2023-04-29T06:31:51.531Z,40.43
2023-04-29T06:34:54.668Z,45.77
2023-04-29T06:38:17.855Z,42.07
2023-04-29T06:41:34.118Z,40.80
2023-04-29T06:44:56.131Z,41.77
2023-04-29T06:48:39.048Z,40.90
2023-04-29T06:51:43.861Z,46.17
2023-04-29T06:54:46.921Z,41.97
2023-04-29T06:57:49.952Z,42.27
2023-04-29T07:00:53.328Z,44.23
2023-04-29T07:03:59.995Z,41.00
2023-04-29T07:07:03.771Z,39.33
2023-04-29T07:10:07.952Z,42.47
2023-04-29T07:13:11.150Z,41.03
2023-04-29T07:16:18.203Z,35.73
2023-04-29T07:19:22.927Z,32.80
2023-04-29T07:22:26.462Z,31.60
2023-04-29T07:25:29.684Z,32.37
2023-04-29T07:28:32.885Z,34.97
2023-04-29T07:31:38.401Z,38.80
2023-04-29T07:34:43.061Z,35.37
2023-04-29T07:37:46.612Z,32.77
2023-04-29T07:40:49.779Z,34.60
2023-04-29T07:43:52.892Z,40.00
2023-04-29T07:46:56.403Z,36.07
2023-04-29T07:50:00.961Z,36.73
2023-04-29T07:53:05.110Z,32.93
2023-04-29T07:56:09.789Z,34.13
2023-04-29T07:59:13.007Z,34.60
2023-04-29T08:02:16.813Z,32.57
2023-04-29T08:05:22.424Z,32.33
2023-04-29T08:08:26.095Z,32.07
2023-04-29T08:11:29.295Z,33.80
2023-04-29T08:14:32.458Z,27.50
2023-04-29T08:17:36.610Z,26.63
2023-04-29T08:20:49.849Z,25.53
2023-04-29T08:23:53.550Z,26.90
2023-04-29T08:26:56.585Z,25.83
2023-04-29T08:30:02.992Z,25.27
2023-04-29T08:33:06.521Z,24.77
2023-04-29T08:36:17.766Z,26.90
2023-04-29T08:39:23.611Z,25.00
2023-04-29T08:42:36.309Z,26.40
2023-04-29T08:45:40.980Z,24.57
2023-04-29T08:48:45.605Z,26.87
2023-04-29T08:51:52.439Z,26.83
2023-04-29T08:54:56.057Z,26.90
2023-04-29T08:58:00.138Z,25.47
2023-04-29T09:01:03.611Z,25.83
2023-04-29T09:04:21.753Z,27.70
2023-04-29T09:07:27.077Z,28.13
2023-04-29T09:10:30.477Z,29.13
2023-04-29T09:13:33.953Z,31.23
2023-04-29T09:16:39.463Z,35.50
2023-04-29T09:19:42.933Z,39.67
2023-04-29T09:22:50.484Z,43.40
2023-04-29T09:25:59.941Z,44.03
2023-04-29T09:29:11.627Z,45.97
2023-04-29T09:32:21.517Z,46.67
2023-04-29T09:35:26.994Z,47.40
2023-04-29T09:38:33.666Z,48.70
2023-04-29T09:41:37.223Z,48.93
2023-04-29T09:44:43.777Z,44.70
2023-04-29T09:47:46.857Z,45.60
2023-04-29T09:51:04.266Z,52.37
2023-04-29T09:54:22.095Z,55.10
2023-04-29T09:57:44.255Z,57.30
2023-04-29T10:00:48.657Z,51.77
2023-04-29T10:03:54.799Z,47.97
2023-04-29T10:06:58.307Z,55.90
2023-04-29T10:10:06.350Z,54.23
2023-04-29T10:13:09.609Z,62.77
2023-04-29T10:16:25.622Z,75.07
2023-04-29T10:19:36.262Z,74.90
2023-04-29T10:22:48.693Z,80.37
2023-04-29T10:25:54.582Z,79.40
2023-04-29T10:29:00.340Z,81.47
2023-04-29T10:32:08.668Z,86.40
2023-04-29T10:35:14.514Z,85.27
2023-04-29T10:38:27.502Z,79.40
2023-04-29T10:41:38.969Z,77.07
2023-04-29T10:45:27.295Z,72.73
2023-04-29T10:48:30.639Z,68.93
2023-04-29T10:51:35.429Z,73.60
2023-04-29T10:54:40.931Z,66.10
2023-04-29T10:57:45.311Z,61.47
2023-04-29T11:00:48.593Z,64.50
2023-04-29T11:03:59.300Z,56.43
2023-04-29T11:07:03.045Z,51.97
2023-04-29T11:10:08.619Z,56.90
2023-04-29T11:13:39.670Z,52.97
2023-04-29T11:16:50.309Z,47.50
2023-04-29T11:19:56.124Z,47.30
2023-04-29T11:23:01.805Z,40.43
2023-04-29T11:26:05.530Z,43.00
2023-04-29T11:29:11.476Z,45.43
2023-04-29T11:32:14.982Z,44.37
2023-04-29T11:35:19.790Z,43.67
2023-04-29T11:38:25.848Z,41.67
2023-04-29T11:41:29.291Z,36.90
2023-04-29T11:44:35.638Z,38.47
2023-04-29T11:47:43.164Z,37.97
2023-04-29T11:50:46.966Z,33.77
2023-04-29T11:53:50.026Z,33.03
2023-04-29T11:56:55.450Z,28.97
2023-04-29T12:00:00.360Z,33.17
2023-04-29T12:03:09.650Z,30.33
2023-04-29T12:06:15.076Z,27.83
2023-04-29T12:09:19.372Z,27.60
2023-04-29T12:12:22.529Z,26.57
2023-04-29T12:15:27.568Z,23.73
2023-04-29T12:18:31.692Z,24.43
2023-04-29T12:21:35.484Z,22.60
2023-04-29T12:24:40.109Z,23.00
2023-04-29T12:27:43.606Z,28.07
2023-04-29T12:30:49.328Z,25.10
2023-04-29T12:33:56.258Z,23.33
2023-04-29T12:37:01.228Z,21.13
2023-04-29T12:40:05.300Z,21.73
2023-04-29T12:43:09.529Z,23.03
2023-04-29T12:46:15.274Z,20.80
2023-04-29T12:49:20.454Z,23.00
2023-04-29T12:52:23.730Z,25.37
2023-04-29T12:55:27.005Z,23.03
2023-04-29T12:58:34.281Z,19.50
2023-04-29T13:01:39.894Z,19.40
2023-04-29T13:04:45.855Z,18.33
2023-04-29T13:07:48.976Z,19.90
2023-04-29T13:10:51.995Z,17.37
2023-04-29T13:13:55.149Z,21.27
2023-04-29T13:16:59.871Z,15.73
2023-04-29T13:20:03.369Z,15.87
2023-04-29T13:23:09.361Z,12.47
2023-04-29T13:26:12.414Z,14.17
2023-04-29T13:29:15.498Z,15.20
2023-04-29T13:32:24.621Z,14.30
2023-04-29T13:35:29.538Z,13.97
2023-04-29T13:38:33.094Z,13.93
2023-04-29T13:41:36.339Z,13.50
2023-04-29T13:51:33.319Z,12.77
2023-04-29T13:58:29.806Z,11.30
2023-04-29T14:03:58.673Z,11.13
2023-04-29T14:07:02.006Z,14.27
2023-04-29T14:10:06.242Z,12.83
2023-04-29T14:13:09.289Z,13.33
2023-04-29T14:16:17.380Z,12.63
2023-04-29T14:19:23.080Z,13.37
2023-04-29T14:22:27.420Z,12.57
2023-04-29T14:25:31.562Z,12.70
2023-04-29T14:28:37.124Z,13.07
2023-04-29T14:31:42.778Z,13.77
2023-04-29T14:34:47.342Z,13.33
2023-04-29T14:37:50.632Z,17.77
2023-04-29T14:41:08.668Z,13.83
2023-04-29T14:44:12.017Z,14.43
2023-04-29T14:47:15.107Z,15.83
2023-04-29T14:50:23.154Z,13.32
2023-04-29T14:53:26.467Z,12.45
2023-04-29T14:56:33.124Z,12.23
2023-04-29T14:59:36.315Z,12.70
2023-04-29T15:02:39.502Z,15.30
2023-04-29T15:05:43.984Z,11.38
2023-04-29T15:08:48.730Z,12.77
2023-04-29T15:11:52.176Z,11.82
2023-04-29T15:14:55.462Z,9.88
2023-04-29T15:17:58.891Z,11.07
2023-04-29T15:21:04.444Z,11.98
2023-04-29T15:24:09.341Z,10.10
2023-04-29T15:27:12.381Z,12.98
2023-04-29T15:30:18.976Z,11.85
2023-04-29T15:33:22.040Z,8.98
2023-04-29T15:36:32.202Z,8.80
2023-04-29T15:39:38.078Z,12.07
2023-04-29T15:42:41.604Z,9.27
2023-04-29T15:45:45.102Z,13.23
2023-04-29T15:48:48.249Z,12.25
2023-04-29T15:51:52.668Z,9.32
2023-04-29T15:54:55.676Z,12.55
2023-04-29T15:57:58.797Z,10.13
2023-04-29T16:01:02.121Z,10.57
2023-04-29T16:04:06.167Z,12.48
2023-04-29T16:07:10.651Z,10.00
2023-04-29T16:10:13.695Z,10.77
2023-04-29T16:13:16.778Z,11.43
2023-04-29T16:16:28.802Z,14.27
2023-04-29T16:19:36.828Z,13.63
2023-04-29T16:22:42.334Z,14.48
2023-04-29T16:25:45.420Z,10.32
2023-04-29T16:28:49.840Z,10.80
2023-04-29T16:31:53.780Z,11.87
2023-04-29T16:34:57.789Z,10.45
2023-04-29T16:38:04.207Z,13.87
2023-04-29T16:41:10.640Z,11.67
2023-04-29T16:44:19.697Z,16.83
2023-04-29T16:47:24.151Z,10.70
2023-04-29T16:50:27.708Z,11.05
2023-04-29T16:53:34.065Z,13.00
2023-04-29T16:56:37.911Z,13.02
2023-04-29T16:59:43.101Z,14.43
2023-04-29T17:02:51.023Z,9.40
2023-04-29T17:05:54.390Z,12.65
2023-04-29T17:09:00.135Z,10.03
2023-04-29T17:12:05.961Z,15.02
2023-04-29T17:15:10.218Z,13.17
2023-04-29T17:18:13.822Z,9.73
2023-04-29T17:21:17.278Z,7.30
2023-04-29T17:24:21.612Z,11.48
2023-04-29T17:27:25.085Z,9.48
2023-04-29T17:30:28.297Z,7.00
2023-04-29T17:33:35.297Z,7.03
2023-04-29T17:36:38.694Z,7.50
2023-04-29T17:39:43.378Z,8.00
2023-04-29T17:42:46.833Z,10.37
2023-04-29T17:45:49.902Z,7.60
2023-04-29T17:48:53.059Z,7.70
2023-04-29T17:51:56.047Z,6.90
2023-04-29T17:55:00.494Z,7.33
2023-04-29T17:58:03.537Z,7.43
2023-04-29T18:01:06.911Z,6.57
2023-04-29T18:04:10.026Z,6.67
2023-04-29T18:07:13.530Z,5.60
2023-04-29T18:10:19.128Z,8.83
2023-04-29T18:13:22.131Z,5.47
2023-04-29T18:16:26.064Z,8.17
2023-04-29T18:19:33.650Z,6.20
2023-04-29T18:22:36.883Z,8.57
2023-04-29T18:25:41.734Z,5.97
2023-04-29T18:28:46.739Z,14.20
2023-04-29T18:31:57.941Z,18.97
2023-04-29T18:38:23.291Z,18.10
2023-04-29T18:41:28.093Z,15.53
2023-04-29T18:44:33.365Z,15.33
2023-04-29T18:47:36.868Z,12.43
2023-04-29T18:50:41.025Z,11.30
2023-04-29T18:53:44.322Z,12.63
2023-04-29T18:56:50.337Z,9.97
2023-04-29T18:59:53.820Z,8.80
2023-04-29T19:02:58.276Z,11.80
2023-04-29T19:06:04.707Z,13.23
2023-04-29T19:09:08.199Z,9.20
2023-04-29T19:12:12.952Z,10.13
2023-04-29T19:15:17.632Z,9.90
2023-04-29T19:18:22.539Z,7.43
2023-04-29T19:21:25.752Z,7.67
2023-04-29T19:24:28.996Z,7.30
2023-04-29T19:27:33.656Z,10.60
2023-04-29T19:30:36.867Z,7.60
2023-04-29T19:33:49.902Z,6.87
2023-04-29T19:38:04.054Z,7.97
2023-04-29T19:42:06.345Z,10.20
2023-04-29T19:45:35.669Z,10.20
2023-04-29T19:48:38.978Z,7.27
2023-04-29T19:51:42.441Z,11.17
2023-04-29T19:54:45.694Z,7.37
2023-04-29T19:57:52.637Z,9.03
2023-04-29T20:00:57.284Z,9.50
2023-04-29T20:04:00.511Z,8.27
2023-04-29T20:07:03.901Z,9.00
2023-04-29T20:10:08.760Z,8.87
2023-04-29T20:13:12.379Z,7.90
2023-04-29T20:16:18.750Z,11.03
2023-04-29T20:23:00.737Z,10.33
2023-04-29T20:26:05.050Z,9.97
2023-04-29T20:29:10.338Z,8.23
2023-04-29T20:32:15.121Z,14.47
2023-04-29T20:35:18.548Z,12.67
2023-04-29T20:38:22.568Z,10.90
2023-04-29T20:41:28.580Z,9.47
2023-04-29T20:44:32.138Z,11.23
2023-04-29T20:47:36.563Z,11.43
2023-04-29T20:50:40.170Z,9.20
2023-04-29T20:53:43.222Z,8.93
2023-04-29T20:56:46.341Z,11.93
2023-04-29T20:59:49.671Z,10.33
2023-04-29T21:02:53.962Z,7.80
2023-04-29T21:05:58.008Z,14.30
2023-04-29T21:09:01.227Z,12.37
2023-04-29T21:12:06.100Z,9.00
2023-04-29T21:15:10.345Z,9.87
2023-04-29T21:18:15.295Z,11.40
2023-04-29T21:21:22.939Z,13.73
2023-04-29T21:24:26.877Z,9.73
2023-04-29T21:27:30.171Z,10.63
2023-04-29T21:30:33.174Z,12.97
2023-04-29T21:33:40.936Z,10.23
2023-04-29T21:36:43.998Z,10.40
2023-04-29T21:39:50.988Z,9.50
2023-04-29T21:42:55.325Z,11.73
2023-04-29T21:45:58.607Z,12.90
2023-04-29T21:49:04.565Z,10.30
2023-04-29T21:52:09.137Z,10.77
2023-04-29T21:55:12.391Z,9.10
2023-04-29T21:58:16.187Z,10.90
2023-04-29T22:01:40.298Z,10.13
2023-04-29T22:04:44.760Z,12.40
2023-04-29T22:07:50.757Z,10.43
2023-04-29T22:11:20.447Z,11.10
2023-04-29T22:14:35.483Z,9.93
2023-04-29T22:17:41.674Z,8.77
2023-04-29T22:20:46.048Z,10.83
2023-04-29T22:23:50.138Z,12.80
2023-04-29T22:26:53.699Z,7.23
2023-04-29T22:30:00.043Z,7.67
2023-04-29T22:33:03.569Z,7.83
2023-04-29T22:36:11.156Z,6.40
2023-04-29T22:39:16.472Z,9.87
2023-04-29T22:42:20.275Z,8.10
2023-04-29T22:45:24.095Z,6.30
2023-04-29T22:48:31.337Z,8.30
2023-04-29T22:51:36.105Z,7.77
2023-04-29T22:54:40.149Z,7.73
2023-04-29T22:57:43.323Z,6.23
2023-04-29T23:00:46.625Z,11.53
2023-04-29T23:03:49.641Z,8.37
2023-04-29T23:06:54.060Z,7.10
2023-04-29T23:09:58.393Z,8.70
2023-04-29T23:13:04.953Z,5.47
2023-04-29T23:16:12.961Z,6.90
2023-04-29T23:19:24.477Z,9.43
2023-04-29T23:22:37.395Z,6.60
2023-04-29T23:25:40.465Z,9.63
2023-04-29T23:28:43.460Z,13.20
2023-04-29T23:31:47.068Z,8.23
2023-04-29T23:34:51.705Z,11.43
2023-04-29T23:37:56.564Z,8.93
2023-04-29T23:41:02.135Z,7.37
2023-04-29T23:44:05.176Z,7.20
2023-04-29T23:47:08.245Z,6.43
2023-04-29T23:50:11.484Z,11.03
2023-04-29T23:53:16.013Z,8.03
2023-04-29T23:56:20.761Z,9.73
2023-04-29T23:59:23.912Z,7.00
